createdAt,value
2023-04-24T00:00:21.935Z,12.50
2023-04-24T00:02:58.244Z,12.50
2023-04-24T00:05:28.525Z,12.50
2023-04-24T00:07:56.319Z,12.50
2023-04-24T00:10:23.127Z,12.50
2023-04-24T00:12:49.795Z,12.50
2023-04-24T00:15:18.944Z,12.50
2023-04-24T00:17:48.629Z,12.40
2023-04-24T00:20:17.869Z,12.50
2023-04-24T00:22:44.721Z,12.50
2023-04-24T00:25:13.557Z,12.50
2023-04-24T00:27:47.473Z,12.50
2023-04-24T00:30:14.475Z,12.50
2023-04-24T00:32:43.677Z,12.50
2023-04-24T00:35:11.312Z,12.50
2023-04-24T00:37:38.036Z,12.50
2023-04-24T00:40:05.229Z,12.50
2023-04-24T00:42:32.265Z,12.60
2023-04-24T00:44:59.597Z,12.60
2023-04-24T00:47:26.605Z,12.60
2023-04-24T00:49:58.178Z,12.60
2023-04-24T00:52:25.378Z,12.60
2023-04-24T00:54:52.069Z,12.60
2023-04-24T00:57:21.265Z,12.60
2023-04-24T00:59:50.076Z,12.60
2023-04-24T01:02:16.795Z,12.60
2023-04-24T01:04:46.192Z,12.60
2023-04-24T01:07:12.980Z,12.60
2023-04-24T01:09:43.117Z,12.60
2023-04-24T01:12:12.497Z,12.60
2023-04-24T01:14:41.364Z,12.60
2023-04-24T01:17:08.329Z,12.60
2023-04-24T01:19:34.991Z,12.60
2023-04-24T01:22:06.025Z,12.60
2023-04-24T01:24:32.900Z,12.60
2023-04-24T01:26:59.563Z,12.60
2023-04-24T01:29:26.325Z,12.60
2023-04-24T01:31:53.387Z,12.50
2023-04-24T01:34:22.320Z,12.50
2023-04-24T01:36:49.245Z,12.40
2023-04-24T01:39:17.488Z,12.40
2023-04-24T01:41:46.674Z,12.40
2023-04-24T01:44:13.686Z,12.30
2023-04-24T01:46:40.481Z,12.30
2023-04-24T01:49:07.472Z,12.20
2023-04-24T01:51:34.187Z,12.10
2023-04-24T01:54:00.857Z,12.00
2023-04-24T01:56:31.030Z,12.00
2023-04-24T01:58:58.160Z,11.90
2023-04-24T02:01:25.768Z,11.90
2023-04-24T02:03:52.747Z,11.80
2023-04-24T02:06:19.504Z,11.80
2023-04-24T02:08:46.321Z,11.70
2023-04-24T02:11:15.316Z,11.90
2023-04-24T02:13:42.038Z,11.90
2023-04-24T02:16:08.838Z,11.90
2023-04-24T02:18:38.103Z,11.90
2023-04-24T02:30:56.804Z,11.60
2023-04-24T02:33:23.527Z,11.50
2023-04-24T02:38:17.304Z,11.50
2023-04-24T02:40:46.255Z,11.40
2023-04-24T02:43:12.904Z,11.40
2023-04-24T02:45:39.639Z,11.40
2023-04-24T02:48:06.330Z,11.30
2023-04-24T02:50:34.486Z,11.30
2023-04-24T02:53:03.348Z,11.10
2023-04-24T02:55:32.352Z,11.20
2023-04-24T02:58:01.208Z,11.10
2023-04-24T03:02:55.132Z,11.00
2023-04-24T03:05:22.022Z,11.10
2023-04-24T03:07:48.711Z,11.10
2023-04-24T03:10:15.426Z,11.10
2023-04-24T03:12:42.097Z,10.80
2023-04-24T03:15:09.505Z,10.80
2023-04-24T03:17:36.405Z,10.80
2023-04-24T03:20:03.580Z,10.70
2023-04-24T03:22:30.430Z,10.70
2023-04-24T03:24:57.636Z,10.70
2023-04-24T03:27:24.621Z,10.70
2023-04-24T03:29:56.141Z,10.60
2023-04-24T03:32:23.452Z,10.60
2023-04-24T03:34:51.052Z,10.50
2023-04-24T03:37:18.465Z,10.50
2023-04-24T03:39:45.454Z,10.50
2023-04-24T03:42:14.569Z,10.60
2023-04-24T03:44:41.240Z,10.50
2023-04-24T03:47:07.975Z,10.60
2023-04-24T03:49:34.647Z,10.50
2023-04-24T03:52:03.705Z,10.50
2023-04-24T03:54:32.884Z,10.40
2023-04-24T03:56:59.640Z,10.40
2023-04-24T03:59:26.333Z,10.40
2023-04-24T04:01:55.473Z,10.30
2023-04-24T04:04:22.264Z,10.30
2023-04-24T04:06:49.893Z,10.30
2023-04-24T04:09:18.887Z,10.20
2023-04-24T04:11:48.057Z,10.30
2023-04-24T04:14:15.143Z,10.20
2023-04-24T04:16:44.444Z,10.20
2023-04-24T04:19:11.268Z,10.20
2023-04-24T04:21:37.941Z,10.20
2023-04-24T04:24:08.188Z,10.10
2023-04-24T04:26:39.996Z,10.10
2023-04-24T04:29:07.667Z,10.10
2023-04-24T04:31:34.359Z,10.10
2023-04-24T04:34:02.537Z,10.10
2023-04-24T04:36:32.270Z,10.10
2023-04-24T04:39:01.370Z,10.10
2023-04-24T04:41:30.186Z,10.00
2023-04-24T04:43:59.551Z,10.00
2023-04-24T04:46:27.239Z,10.00
2023-04-24T04:48:57.702Z,10.00
2023-04-24T04:51:24.479Z,10.00
2023-04-24T04:53:53.601Z,10.00
2023-04-24T04:56:20.433Z,10.10
2023-04-24T04:58:47.145Z,10.30
2023-04-24T05:01:13.933Z,10.30
2023-04-24T05:03:41.069Z,10.30
2023-04-24T05:06:10.228Z,10.30
2023-04-24T05:08:39.251Z,10.40
2023-04-24T05:11:06.017Z,10.40
2023-04-24T05:13:39.758Z,10.50
2023-04-24T05:16:08.254Z,10.60
2023-04-24T05:18:37.551Z,10.60
2023-04-24T05:21:04.308Z,10.60
2023-04-24T05:23:31.536Z,10.70
2023-04-24T05:25:58.452Z,10.70
2023-04-24T05:28:29.244Z,10.90
2023-04-24T05:31:00.222Z,10.70
2023-04-24T05:33:26.918Z,10.70
2023-04-24T05:35:56.104Z,10.70
2023-04-24T05:38:22.819Z,10.70
2023-04-24T05:40:49.481Z,10.70
2023-04-24T05:43:18.786Z,10.80
2023-04-24T05:45:47.930Z,10.80
2023-04-24T05:48:14.712Z,10.80
2023-04-24T05:50:43.813Z,10.70
2023-04-24T05:53:13.040Z,10.80
2023-04-24T05:55:39.863Z,10.80
2023-04-24T05:58:07.087Z,10.80
2023-04-24T06:00:34.230Z,10.80
2023-04-24T06:03:04.856Z,10.80
2023-04-24T06:05:34.291Z,10.80
2023-04-24T06:08:00.970Z,10.80
2023-04-24T06:10:28.331Z,10.80
2023-04-24T06:12:57.257Z,10.80
2023-04-24T06:15:23.945Z,10.80
2023-04-24T06:17:50.727Z,10.80
2023-04-24T06:20:17.413Z,10.80
2023-04-24T06:22:46.601Z,10.80
2023-04-24T06:25:13.271Z,10.80
2023-04-24T06:27:40.063Z,10.80
2023-04-24T06:30:08.012Z,10.80
2023-04-24T06:32:34.713Z,10.80
2023-04-24T06:35:01.403Z,10.90
2023-04-24T06:37:28.377Z,10.90
2023-04-24T06:39:55.084Z,11.00
2023-04-24T06:42:25.678Z,11.00
2023-04-24T06:44:52.374Z,11.10
2023-04-24T06:47:21.642Z,11.10
2023-04-24T06:49:56.125Z,11.10
2023-04-24T06:52:22.774Z,11.10
2023-04-24T06:54:49.550Z,11.00
2023-04-24T06:57:17.254Z,11.00
2023-04-24T06:59:46.330Z,11.00
2023-04-24T07:02:13.095Z,11.00
2023-04-24T07:04:40.112Z,11.00
2023-04-24T07:07:07.837Z,11.00
2023-04-24T07:09:36.291Z,11.00
2023-04-24T07:12:03.174Z,10.90
2023-04-24T07:14:29.848Z,10.80
2023-04-24T07:16:58.021Z,10.70
2023-04-24T07:19:24.770Z,10.70
2023-04-24T07:21:56.105Z,10.60
2023-04-24T07:24:23.912Z,10.60
2023-04-24T07:26:53.135Z,10.70
2023-04-24T07:29:22.743Z,10.70
2023-04-24T07:31:49.549Z,10.60
2023-04-24T07:34:18.672Z,10.60
2023-04-24T07:36:45.401Z,10.70
2023-04-24T07:39:14.467Z,10.70
2023-04-24T07:41:43.316Z,10.70
2023-04-24T07:44:10.056Z,10.70
2023-04-24T07:46:36.877Z,10.60
2023-04-24T07:49:13.668Z,10.60
2023-04-24T07:51:42.233Z,10.60
2023-04-24T07:54:11.306Z,10.50
2023-04-24T07:56:40.043Z,10.50
2023-04-24T07:59:07.251Z,10.60
2023-04-24T08:01:34.020Z,10.50
2023-04-24T08:04:01.133Z,10.50
2023-04-24T08:06:31.316Z,10.40
2023-04-24T08:08:58.637Z,10.40
2023-04-24T08:11:26.456Z,10.30
2023-04-24T08:13:53.197Z,10.30
2023-04-24T08:16:20.058Z,10.30
2023-04-24T08:18:48.970Z,10.30
2023-04-24T08:21:18.175Z,10.20
2023-04-24T08:23:45.587Z,10.20
2023-04-24T08:26:12.988Z,10.20
2023-04-24T08:28:41.879Z,10.10
2023-04-24T08:31:11.054Z,10.30
2023-04-24T08:33:41.840Z,10.10
2023-04-24T08:36:11.422Z,10.00
2023-04-24T08:38:43.097Z,9.90
2023-04-24T11:39:21.008Z,10.90
2023-04-24T11:41:50.560Z,10.90
2023-04-24T11:44:21.821Z,11.00
2023-04-24T11:46:51.015Z,11.20
2023-04-24T11:49:22.809Z,11.30
2023-04-24T11:51:53.511Z,11.40
2023-04-24T11:54:20.991Z,11.40
2023-04-24T11:56:48.733Z,11.30
2023-04-24T11:59:15.734Z,11.30
2023-04-24T12:01:53.454Z,11.20
2023-04-24T12:04:22.645Z,11.00
2023-04-24T12:07:02.063Z,10.90
2023-04-24T12:09:29.041Z,10.80
2023-04-24T12:11:59.307Z,10.80
2023-04-24T12:14:28.295Z,11.00
2023-04-24T12:16:58.177Z,11.30
2023-04-24T12:19:30.439Z,11.40
2023-04-24T12:22:06.118Z,11.50
2023-04-24T12:24:33.290Z,11.60
2023-04-24T12:27:02.372Z,11.60
2023-04-24T12:29:29.347Z,11.50
2023-04-24T12:31:56.359Z,11.50
2023-04-24T12:34:25.966Z,11.40
2023-04-24T12:36:53.208Z,11.50
2023-04-24T12:39:20.996Z,11.80
2023-04-24T12:41:58.237Z,12.00
2023-04-24T12:44:32.528Z,12.50
2023-04-24T12:46:59.409Z,12.60
2023-04-24T12:49:26.256Z,12.50
2023-04-24T12:51:55.656Z,12.60
2023-04-24T13:01:46.661Z,13.40
2023-04-24T13:04:13.508Z,13.40
2023-04-24T13:06:40.387Z,13.40
2023-04-24T13:09:09.308Z,13.20
2023-04-24T13:11:38.270Z,13.20
2023-04-24T13:14:07.128Z,13.00
2023-04-24T13:16:33.974Z,12.80
2023-04-24T13:19:00.910Z,12.60
2023-04-24T13:21:28.456Z,12.40
2023-04-24T13:23:55.239Z,12.30
2023-04-24T13:26:21.950Z,12.20
2023-04-24T13:28:48.688Z,12.20
2023-04-24T13:31:15.411Z,12.30
2023-04-24T13:33:44.675Z,12.50
2023-04-24T13:36:11.708Z,12.70
2023-04-24T13:38:38.613Z,13.00
2023-04-24T13:41:05.407Z,13.40
2023-04-24T13:43:32.052Z,13.50
2023-04-24T13:46:00.350Z,13.50
2023-04-24T13:58:16.024Z,15.50
2023-04-24T14:00:47.567Z,16.00
2023-04-24T14:03:14.573Z,16.30
2023-04-24T14:05:41.800Z,16.50
2023-04-24T14:08:08.448Z,16.00
2023-04-24T14:10:35.175Z,15.60
2023-04-24T14:13:01.925Z,15.20
2023-04-24T14:15:29.404Z,14.70
2023-04-24T14:17:56.237Z,14.30
2023-04-24T14:20:23.647Z,14.10
2023-04-24T14:22:50.358Z,14.00
2023-04-24T14:25:17.022Z,13.90
2023-04-24T14:27:43.760Z,13.70
2023-04-24T14:30:10.710Z,13.50
2023-04-24T14:32:39.479Z,13.40
2023-04-24T14:35:07.828Z,13.30
2023-04-24T14:37:34.695Z,13.10
2023-04-24T14:42:33.331Z,12.90
2023-04-24T14:45:02.791Z,12.80
2023-04-24T14:47:30.405Z,12.90
2023-04-24T14:50:01.792Z,12.80
2023-04-24T14:52:28.740Z,12.80
2023-04-24T14:54:55.675Z,12.90
2023-04-24T14:57:22.467Z,12.90
2023-04-24T14:59:49.175Z,13.00
2023-04-24T15:02:19.107Z,13.10
2023-04-24T15:04:50.130Z,13.30
2023-04-24T15:07:17.117Z,14.00
2023-04-24T15:09:44.058Z,14.70
2023-04-24T15:12:13.257Z,14.70
2023-04-24T15:14:42.264Z,15.20
2023-04-24T15:17:11.396Z,15.70
2023-04-24T15:19:38.105Z,16.70
2023-04-24T15:22:09.788Z,16.90
2023-04-24T15:24:36.478Z,17.70
2023-04-24T15:27:08.021Z,17.60
2023-04-24T15:29:36.933Z,16.90
2023-04-24T15:32:03.821Z,16.70
2023-04-24T15:34:30.557Z,16.70
2023-04-24T15:36:57.297Z,17.50
2023-04-24T15:39:25.408Z,18.50
2023-04-24T15:41:52.762Z,18.70
2023-04-24T15:44:19.717Z,19.20
2023-04-24T15:46:46.539Z,19.20
2023-04-24T15:49:13.200Z,19.10
2023-04-24T15:51:39.959Z,18.10
2023-04-24T15:54:06.772Z,17.10
2023-04-24T15:56:33.823Z,16.40
2023-04-24T15:59:03.926Z,15.80
2023-04-24T16:01:33.897Z,15.20
2023-04-24T16:04:00.934Z,15.10
2023-04-24T16:06:27.900Z,14.80
2023-04-24T16:08:59.514Z,14.60
2023-04-24T16:11:27.200Z,14.30
2023-04-24T16:13:53.949Z,14.20
2023-04-24T16:16:20.733Z,14.20
2023-04-24T16:18:50.033Z,14.20
2023-04-24T16:23:44.095Z,14.00
2023-04-24T16:26:10.952Z,14.10
2023-04-24T16:28:37.865Z,14.10
2023-04-24T16:31:06.734Z,13.70
2023-04-24T16:33:33.489Z,13.70
2023-04-24T16:36:00.425Z,13.60
2023-04-24T16:38:27.553Z,13.50
2023-04-24T16:40:56.764Z,13.50
2023-04-24T16:43:23.578Z,13.40
2023-04-24T16:45:50.259Z,13.30
2023-04-24T16:48:17.710Z,13.30
2023-04-24T16:50:45.917Z,13.30
2023-04-24T16:53:12.615Z,13.30
2023-04-24T16:55:44.496Z,13.30
2023-04-24T16:58:11.161Z,13.30
2023-04-24T17:00:38.477Z,13.30
2023-04-24T17:03:08.091Z,13.20
2023-04-24T17:05:36.447Z,13.20
2023-04-24T17:10:35.257Z,13.20
2023-04-24T17:13:01.972Z,13.00
2023-04-24T17:15:28.753Z,13.00
2023-04-24T17:17:56.601Z,13.00
2023-04-24T17:20:27.004Z,12.90
2023-04-24T17:22:55.739Z,12.90
2023-04-24T17:25:25.081Z,12.80
2023-04-24T17:27:51.786Z,12.80
2023-04-24T17:30:18.752Z,12.90
2023-04-24T17:35:13.311Z,12.90
2023-04-24T17:37:42.435Z,12.90
2023-04-24T17:40:09.982Z,12.90
2023-04-24T17:42:41.458Z,12.80
2023-04-24T17:45:09.025Z,12.80
2023-04-24T17:47:35.782Z,12.80
2023-04-24T17:50:02.878Z,12.80
2023-04-24T18:44:10.623Z,12.40
2023-04-24T18:46:41.395Z,12.20
2023-04-24T18:49:08.279Z,12.20
2023-04-24T18:51:46.562Z,12.10
2023-04-24T18:54:19.646Z,12.10
2023-04-24T18:56:48.839Z,12.00
2023-04-24T18:59:15.795Z,12.00
2023-04-24T19:01:42.583Z,12.00
2023-04-24T19:04:09.907Z,12.00
2023-04-24T19:06:36.819Z,12.00
2023-04-24T19:09:03.964Z,11.90
2023-04-24T19:11:30.743Z,12.00
2023-04-24T19:14:03.125Z,11.90
2023-04-24T19:16:29.975Z,11.90
2023-04-24T19:18:56.755Z,11.90
2023-04-24T19:21:26.211Z,11.90
2023-04-24T19:23:53.088Z,11.90
2023-04-24T19:26:21.787Z,11.80
2023-04-24T19:28:48.795Z,11.80
2023-04-24T19:31:15.956Z,11.70
2023-04-24T19:33:42.684Z,11.70
2023-04-24T19:36:09.864Z,11.70
2023-04-24T19:38:36.748Z,11.70
2023-04-24T19:41:03.620Z,11.80
2023-04-24T19:43:32.453Z,11.70
2023-04-24T19:45:59.271Z,11.80
2023-04-24T19:48:31.075Z,11.70
2023-04-24T19:50:59.384Z,11.70
2023-04-24T19:53:26.271Z,11.70
2023-04-24T19:55:55.895Z,11.70
2023-04-24T19:58:24.973Z,11.70
2023-04-24T20:00:51.705Z,11.70
2023-04-24T20:03:31.215Z,11.60
2023-04-24T20:05:58.563Z,11.70
2023-04-24T20:08:27.426Z,11.60
2023-04-24T20:10:54.485Z,11.60
2023-04-24T20:13:21.454Z,11.80
2023-04-24T20:15:48.177Z,11.70
2023-04-24T20:20:42.574Z,11.40
2023-04-24T20:23:09.419Z,11.30
2023-04-24T20:25:36.557Z,11.30
2023-04-24T20:28:03.434Z,11.30
2023-04-24T20:30:31.526Z,11.30
2023-04-24T20:33:01.129Z,11.30
2023-04-24T20:35:30.401Z,11.20
2023-04-24T20:37:57.313Z,11.20
2023-04-24T20:40:24.074Z,11.20
2023-04-24T20:42:51.271Z,11.20
2023-04-24T20:47:45.154Z,11.10
2023-04-24T20:50:12.156Z,11.10
2023-04-24T20:52:38.915Z,11.10
2023-04-24T20:55:06.897Z,11.10
2023-04-24T20:57:33.696Z,11.10
2023-04-24T21:00:03.900Z,11.10
2023-04-24T21:02:30.776Z,11.00
2023-04-24T21:04:57.550Z,11.00
2023-04-24T21:07:26.758Z,11.00
2023-04-24T21:09:58.202Z,11.00
2023-04-24T21:12:24.897Z,10.90
2023-04-24T21:14:51.757Z,10.90
2023-04-24T21:17:18.977Z,10.80
2023-04-24T21:19:45.904Z,10.80
2023-04-24T21:22:12.593Z,10.80
2023-04-24T21:24:39.346Z,10.80
2023-04-24T21:27:07.314Z,10.80
2023-04-24T21:29:36.275Z,10.80
2023-04-24T21:32:03.525Z,10.70
2023-04-24T21:34:32.681Z,10.70
2023-04-24T21:36:59.404Z,10.70
2023-04-24T21:39:28.570Z,10.60
2023-04-24T21:41:55.446Z,10.60
2023-04-24T21:44:22.113Z,10.50
2023-04-24T21:46:48.859Z,10.40
2023-04-24T21:49:15.614Z,10.40
2023-04-24T21:51:42.398Z,10.40
2023-04-24T21:54:11.639Z,10.30
2023-04-24T22:09:02.295Z,10.20
2023-04-24T22:11:29.130Z,9.90
2023-04-24T22:13:55.966Z,9.80
2023-04-24T22:16:26.864Z,9.70
2023-04-24T22:18:56.585Z,9.70
2023-04-24T22:21:25.945Z,9.60
2023-04-24T22:23:55.284Z,9.60
2023-04-24T22:26:26.673Z,9.70
2023-04-24T22:28:53.474Z,9.80
2023-04-24T22:31:20.361Z,9.80
2023-04-24T22:33:49.825Z,9.80
2023-04-24T22:36:16.981Z,9.80
2023-04-24T22:38:46.121Z,9.70
2023-04-24T22:41:13.113Z,9.80
2023-04-24T22:43:39.863Z,9.80
2023-04-24T22:46:06.643Z,9.90
2023-04-24T22:48:34.526Z,9.90
2023-04-24T22:51:03.730Z,9.90
2023-04-24T22:53:30.586Z,9.90
2023-04-24T22:55:57.388Z,9.90
2023-04-24T22:58:24.702Z,9.80
2023-04-24T23:00:51.609Z,9.80
2023-04-24T23:03:23.706Z,9.80
2023-04-24T23:05:50.705Z,9.80
2023-04-24T23:08:17.365Z,9.80
2023-04-24T23:10:44.035Z,9.80
2023-04-24T23:13:10.732Z,9.80
2023-04-24T23:15:39.308Z,9.80
2023-04-24T23:18:06.157Z,9.80
2023-04-24T23:20:32.953Z,9.70
2023-04-24T23:23:00.679Z,9.80
2023-04-24T23:25:27.481Z,9.80
2023-04-24T23:27:56.510Z,9.80
2023-04-24T23:30:23.394Z,9.70
2023-04-24T23:32:50.081Z,9.60
2023-04-24T23:35:16.943Z,9.70
2023-04-24T23:37:45.994Z,9.70
2023-04-24T23:40:12.799Z,9.80
2023-04-24T23:42:39.684Z,9.70
2023-04-24T23:45:07.794Z,9.70
2023-04-24T23:47:34.572Z,9.70
2023-04-24T23:50:01.333Z,9.70
2023-04-24T23:52:28.105Z,9.70
2023-04-24T23:54:54.892Z,9.70
2023-04-24T23:57:21.734Z,9.80
2023-04-24T23:59:48.426Z,9.70
